Budapest Bridge — VRIZ5 — position and weather

sailwx.info

Track history (hours):
 
Tides and Currents Weather Stations Pressure Air Temp Water Temp Dewpoint Dewpoint Depression Visibility Wind Speed Wind Dir Waves Ship Positions

Budapest Bridge

Last reported at 2015-Jul-29 02:33 UTC. Time now 2015-Jul-29 02:35 UTC.
Position N 34°41' E 135°16'.

Length 268 m; draft 10.7 m.

Type: Cargo ship. MMSI: 477434200.

Date/timePositionNaut miles runAvg speedWind from/ knotsBaromVisibWave heightAir tempDewpointWater temp
2015-Jul-29 02:33N 34°41' E 135°16'0 0.0
2015-Jul-29 01:33N 34°41' E 135°16'0 0.0
2015-Jul-29 00:33N 34°41' E 135°16'0 0.2
2015-Jul-28 23:34N 34°41' E 135°15'8 8.3
2015-Jul-28 22:33N 34°32' E 135°13'1716.8
2015-Jul-28 21:33N 34°19' E 135°00'1313.5
2015-Jul-28 20:33N 34°06' E 134°58'1615.6
2015-Jul-28 19:33N 33°50' E 134°56'227 5.1
2015-Jul-26 23:19N 34°53' E 139°20'1316.7
2015-Jul-26 22:33N 35°01' E 139°33'1414.4
2015-Jul-26 21:33N 35°11' E 139°45'1211.5
2015-Jul-26 20:33N 35°22' E 139°42'5 4.9
2015-Jul-26 19:34N 35°27' E 139°40'0 0.0
2015-Jul-26 18:34N 35°27' E 139°40'0 0.0
2015-Jul-26 17:34N 35°27' E 139°40'0 0.0
2015-Jul-26 16:33N 35°27' E 139°40'0 0.0
2015-Jul-26 15:33N 35°27' E 139°40'0 0.0
2015-Jul-26 14:34N 35°27' E 139°40'0 0.0
2015-Jul-26 13:33N 35°27' E 139°40'0 0.0
2015-Jul-26 12:34N 35°27' E 139°40'0 0.0
2015-Jul-26 11:34N 35°27' E 139°40'0 0.0
2015-Jul-26 10:34N 35°27' E 139°40'1 0.9
2015-Jul-26 09:34N 35°27' E 139°42'6 5.5
2015-Jul-26 08:33N 35°29' E 139°48'2 1.8
2015-Jul-26 07:33N 35°29' E 139°45'0 0.0
2015-Jul-26 06:33N 35°29' E 139°45'0 0.0
2015-Jul-26 05:33N 35°29' E 139°45'0 0.0
2015-Jul-26 04:33N 35°29' E 139°45'1 1.3
2015-Jul-26 03:34N 35°28' E 139°45'8 8.2
2015-Jul-26 02:33N 35°36' E 139°46'1 0.6
2015-Jul-26 01:33N 35°37' E 139°46'0 0.0
2015-Jul-26 00:33N 35°37' E 139°46'0 0.0
2015-Jul-25 23:33N 35°37' E 139°46'0 0.0
2015-Jul-25 22:33N 35°37' E 139°46'0 0.0
2015-Jul-25 21:33N 35°37' E 139°46'0 0.0
2015-Jul-25 20:33N 35°37' E 139°46'0 0.0
2015-Jul-25 19:33N 35°37' E 139°46'0 0.0
2015-Jul-25 18:33N 35°37' E 139°46'0 0.0
2015-Jul-25 17:33N 35°37' E 139°46'0 0.0
2015-Jul-25 16:33N 35°37' E 139°46'0 0.0
2015-Jul-25 15:33N 35°37' E 139°46'0 0.0
2015-Jul-25 14:33N 35°37' E 139°46'0 0.0
2015-Jul-25 13:33N 35°37' E 139°46'0 0.0
2015-Jul-25 12:33N 35°37' E 139°46'0 0.0
2015-Jul-25 11:33N 35°37' E 139°46'0 0.0
2015-Jul-25 10:33N 35°37' E 139°46'0 0.1
2015-Jul-25 09:34N 35°37' E 139°46'3 3.4
2015-Jul-25 08:33N 35°34' E 139°49'1111.2
2015-Jul-25 07:34N 35°23' E 139°46'1212.4
2015-Jul-25 06:33N 35°11' E 139°47'1110.9
2015-Jul-25 05:33N 35°01' E 139°41'3 2.9
2015-Jul-25 04:33N 35°01' E 139°37'3 3.1
2015-Jul-25 03:33N 34°59' E 139°34'3 3.4
2015-Jul-25 02:33N 34°57' E 139°30'8 8.2
2015-Jul-25 01:33N 34°53' E 139°21'1110.0
2015-Jul-25 00:27N 34°44' E 139°15'1211.2
2015-Jul-24 23:22N 34°34' E 139°07'1213.7
2015-Jul-24 22:31N 34°24' E 138°60'1412.7
2015-Jul-24 21:23N 34°12' E 138°49'  
Track history (hours):
 
Tides and Currents Weather Stations Pressure Air Temp Water Temp Dewpoint Dewpoint Depression Visibility Wind Speed Wind Dir Waves Ship Positions

Budapest Bridge

Last reported at 2015-Jul-29 02:33 UTC. Time now 2015-Jul-29 02:35 UTC.
Position N 34°41' E 135°16'.

Length 268 m; draft 10.7 m.

Type: Cargo ship. MMSI: 477434200.

Date/timePositionNaut miles runAvg speedWind from/ knotsBaromVisibWave heightAir tempDewpointWater temp
2015-Jul-29 02:33N 34°41' E 135°16'0 0.0
2015-Jul-29 01:33N 34°41' E 135°16'0 0.0
2015-Jul-29 00:33N 34°41' E 135°16'0 0.2
2015-Jul-28 23:34N 34°41' E 135°15'8 8.3
2015-Jul-28 22:33N 34°32' E 135°13'1716.8
2015-Jul-28 21:33N 34°19' E 135°00'1313.5
2015-Jul-28 20:33N 34°06' E 134°58'1615.6
2015-Jul-28 19:33N 33°50' E 134°56'227 5.1
2015-Jul-26 23:19N 34°53' E 139°20'1316.7
2015-Jul-26 22:33N 35°01' E 139°33'1414.4
2015-Jul-26 21:33N 35°11' E 139°45'1211.5
2015-Jul-26 20:33N 35°22' E 139°42'5 4.9
2015-Jul-26 19:34N 35°27' E 139°40'0 0.0
2015-Jul-26 18:34N 35°27' E 139°40'0 0.0
2015-Jul-26 17:34N 35°27' E 139°40'0 0.0
2015-Jul-26 16:33N 35°27' E 139°40'0 0.0
2015-Jul-26 15:33N 35°27' E 139°40'0 0.0
2015-Jul-26 14:34N 35°27' E 139°40'0 0.0
2015-Jul-26 13:33N 35°27' E 139°40'0 0.0
2015-Jul-26 12:34N 35°27' E 139°40'0 0.0
2015-Jul-26 11:34N 35°27' E 139°40'0 0.0
2015-Jul-26 10:34N 35°27' E 139°40'1 0.9
2015-Jul-26 09:34N 35°27' E 139°42'6 5.5
2015-Jul-26 08:33N 35°29' E 139°48'2 1.8
2015-Jul-26 07:33N 35°29' E 139°45'0 0.0
2015-Jul-26 06:33N 35°29' E 139°45'0 0.0
2015-Jul-26 05:33N 35°29' E 139°45'0 0.0
2015-Jul-26 04:33N 35°29' E 139°45'1 1.3
2015-Jul-26 03:34N 35°28' E 139°45'8 8.2
2015-Jul-26 02:33N 35°36' E 139°46'1 0.6
2015-Jul-26 01:33N 35°37' E 139°46'0 0.0
2015-Jul-26 00:33N 35°37' E 139°46'0 0.0
2015-Jul-25 23:33N 35°37' E 139°46'0 0.0
2015-Jul-25 22:33N 35°37' E 139°46'0 0.0
2015-Jul-25 21:33N 35°37' E 139°46'0 0.0
2015-Jul-25 20:33N 35°37' E 139°46'0 0.0
2015-Jul-25 19:33N 35°37' E 139°46'0 0.0
2015-Jul-25 18:33N 35°37' E 139°46'0 0.0
2015-Jul-25 17:33N 35°37' E 139°46'0 0.0
2015-Jul-25 16:33N 35°37' E 139°46'0 0.0
2015-Jul-25 15:33N 35°37' E 139°46'0 0.0
2015-Jul-25 14:33N 35°37' E 139°46'0 0.0
2015-Jul-25 13:33N 35°37' E 139°46'0 0.0
2015-Jul-25 12:33N 35°37' E 139°46'0 0.0
2015-Jul-25 11:33N 35°37' E 139°46'0 0.0
2015-Jul-25 10:33N 35°37' E 139°46'0 0.1
2015-Jul-25 09:34N 35°37' E 139°46'3 3.4
2015-Jul-25 08:33N 35°34' E 139°49'1111.2
2015-Jul-25 07:34N 35°23' E 139°46'1212.4
2015-Jul-25 06:33N 35°11' E 139°47'1110.9
2015-Jul-25 05:33N 35°01' E 139°41'3 2.9
2015-Jul-25 04:33N 35°01' E 139°37'3 3.1
2015-Jul-25 03:33N 34°59' E 139°34'3 3.4
2015-Jul-25 02:33N 34°57' E 139°30'8 8.2
2015-Jul-25 01:33N 34°53' E 139°21'1110.0
2015-Jul-25 00:27N 34°44' E 139°15'1211.2
2015-Jul-24 23:22N 34°34' E 139°07'1213.7
2015-Jul-24 22:31N 34°24' E 138°60'1412.7
2015-Jul-24 21:23N 34°12' E 138°49'  

Dump ship's entire track history